Weather at Cincinnati Northern Kentucky International Airport

Public forecast

Using degrees Fahrenheit for public forecast. Weather courtesy of forecast.io.

Current aviation weather report (METAR) for Cincinnati Northern Kentucky International Airport

2024/06/18 12:52 (retrieved 19 minutes ago)

KCVG 181252Z 21007KT 10SM FEW230 BKN300 27/21 A3016 RMK AO2 SLP200 T02670211

Aviation forecast (TAF) for Cincinnati Northern Kentucky International Airport

2024/06/18 12:24 (retrieved 47 minutes ago)

TAF KCVG 181122Z 1812/1918 19005KT P6SM BKN250 FM181500 19007KT P6SM SCT050 BKN250 FM181800 19005KT P6SM VCTS BKN050CB FM190100 18003KT P6SM FEW050 BKN250